Time;durP1;ratioP1;P1;durP2;ratioP2;P2;SDS_P1;SDS_P2;PMS_P1;PMS_P2;Temp;Humidity;BMP_temperature;BMP_pressure;BME280_temperature;BME280_humidity;BME280_pressure;Samples;Min_cycle;Max_cycle;Signal;HPM_P1;HPM_P2
2022/10/08 00:00:07;;;;;;;4.97;2.30;;;14.30;96.70;;;;;;5014614;28;20481;-83
2022/10/08 00:02:34;;;;;;;2.90;2.50;;;14.20;96.70;;;;;;5035994;28;20500;-82
2022/10/08 00:05:01;;;;;;;2.80;2.27;;;14.10;96.70;;;;;;5036899;28;20477;-82
2022/10/08 00:07:28;;;;;;;5.33;2.30;;;14.10;97.00;;;;;;5037363;28;20501;-81
2022/10/08 00:09:57;;;;;;;3.80;2.33;;;14.20;96.70;;;;;;5022147;28;20452;-79
2022/10/08 00:12:24;;;;;;;3.83;2.93;;;14.10;96.70;;;;;;5038389;28;20457;-84
2022/10/08 00:14:53;;;;;;;4.30;3.93;;;14.30;96.60;;;;;;5025743;28;20454;-83
2022/10/08 00:17:22;;;;;;;3.93;2.50;;;14.20;96.40;;;;;;5039019;28;20441;-82
2022/10/08 00:19:49;;;;;;;4.00;2.90;;;14.20;96.50;;;;;;5040020;28;20444;-83
2022/10/08 00:22:17;;;;;;;6.07;2.63;;;14.20;96.50;;;;;;5056464;28;20468;-81
2022/10/08 00:24:45;;;;;;;7.63;3.43;;;14.10;96.60;;;;;;5043481;28;20483;-82
2022/10/08 00:27:12;;;;;;;4.50;2.80;;;14.20;96.60;;;;;;5048017;28;20469;-81
2022/10/08 00:29:45;;;;;;;8.30;3.23;;;14.00;96.80;;;;;;5035601;28;20456;-82
2022/10/08 00:32:12;;;;;;;4.63;3.10;;;14.00;96.90;;;;;;5025890;28;20513;-82
2022/10/08 00:34:39;;;;;;;7.63;3.50;;;14.00;97.00;;;;;;5023675;28;20466;-83
2022/10/08 00:37:06;;;;;;;9.63;3.30;;;13.80;97.10;;;;;;5029863;28;20464;-82
2022/10/08 00:39:32;;;;;;;5.83;3.10;;;13.90;97.30;;;;;;5038411;28;21113;-83
2022/10/08 00:42:01;;;;;;;8.33;3.20;;;14.00;97.00;;;;;;5030553;28;20460;-81
2022/10/08 00:44:56;;;;;;;7.43;2.93;;;14.00;96.90;;;;;;5036010;28;20469;-84
2022/10/08 00:47:28;;;;;;;5.80;3.20;;;13.90;97.00;;;;;;5039380;28;20506;-82
2022/10/08 00:50:08;;;;;;;9.70;3.20;;;14.00;96.90;;;;;;5040108;28;20497;-83
2022/10/08 00:52:44;;;;;;;7.23;4.40;;;13.90;96.90;;;;;;5038234;28;20500;-83
2022/10/08 00:55:18;;;;;;;5.73;2.60;;;13.80;97.10;;;;;;5057941;28;20473;-82
2022/10/08 00:57:46;;;;;;;3.30;2.13;;;13.90;97.20;;;;;;5044295;28;20515;-80
2022/10/08 01:00:18;;;;;;;3.60;2.40;;;13.90;97.20;;;;;;5026062;28;20450;-80
2022/10/08 01:02:45;;;;;;;7.13;2.53;;;13.80;97.10;;;;;;5027415;28;20453;-81
2022/10/08 01:05:15;;;;;;;4.20;2.70;;;13.90;97.10;;;;;;5042707;28;20477;-84
2022/10/08 01:07:56;;;;;;;4.57;3.00;;;13.80;97.20;;;;;;5037014;28;20477;-82
2022/10/08 01:10:33;;;;;;;5.10;2.70;;;13.80;97.30;;;;;;5021808;28;20445;-82
2022/10/08 01:13:24;;;;;;;5.27;2.20;;;13.80;97.40;;;;;;5033882;28;20469;-82
2022/10/08 01:16:15;;;;;;;3.97;2.30;;;13.70;97.30;;;;;;5035171;28;20470;-82
2022/10/08 01:19:01;;;;;;;6.50;1.83;;;13.80;97.40;;;;;;5019292;28;20540;-81
2022/10/08 01:21:54;;;;;;;5.33;2.37;;;13.70;97.30;;;;;;5042735;28;20429;-82
2022/10/08 01:27:49;;;;;;;7.40;2.40;;;13.60;97.60;;;;;;5042685;28;20464;-81
2022/10/08 01:30:17;;;;;;;4.73;1.90;;;13.70;97.50;;;;;;5028366;28;20449;-81
2022/10/08 01:32:55;;;;;;;7.13;3.00;;;13.60;97.40;;;;;;5042148;28;20489;-80
2022/10/08 01:35:33;;;;;;;7.50;2.47;;;13.50;97.70;;;;;;5042513;28;20486;-80
2022/10/08 01:38:05;;;;;;;2.37;2.10;;;13.30;97.90;;;;;;5038241;28;20729;-80
2022/10/08 01:40:36;;;;;;;3.83;2.27;;;13.30;98.20;;;;;;5040218;28;20461;-80
2022/10/08 01:43:07;;;;;;;5.37;2.60;;;13.30;98.20;;;;;;5027267;28;20458;-81
2022/10/08 01:45:38;;;;;;;6.50;2.30;;;13.30;98.00;;;;;;5037282;28;20473;-80
2022/10/08 01:48:11;;;;;;;6.60;2.63;;;13.30;98.10;;;;;;5042666;28;20457;-80
2022/10/08 01:50:47;;;;;;;8.00;2.30;;;13.30;98.10;;;;;;5036330;28;20500;-81
2022/10/08 01:53:16;;;;;;;10.73;3.50;;;13.40;98.10;;;;;;5038602;28;20482;-81
2022/10/08 01:55:48;;;;;;;5.83;2.10;;;13.20;98.10;;;;;;5028624;28;20480;-81
2022/10/08 01:58:26;;;;;;;6.77;2.17;;;13.30;98.30;;;;;;5022659;28;20476;-82
2022/10/08 02:00:54;;;;;;;4.20;2.00;;;13.20;98.40;;;;;;5029277;28;20481;-83
2022/10/08 02:03:21;;;;;;;4.23;2.20;;;13.20;98.50;;;;;;5018052;28;20446;-83
2022/10/08 02:05:52;;;;;;;4.30;2.50;;;13.10;98.60;;;;;;5018157;28;20457;-82
2022/10/08 02:08:20;;;;;;;6.63;2.10;;;13.10;98.60;;;;;;5034485;28;20430;-79
2022/10/08 02:10:47;;;;;;;5.00;2.20;;;13.10;98.70;;;;;;5034973;28;20437;-81
2022/10/08 02:13:14;;;;;;;6.37;2.67;;;13.00;98.90;;;;;;5027002;28;21147;-80
2022/10/08 02:15:52;;;;;;;3.97;2.00;;;13.10;99.10;;;;;;5026776;28;20575;-82
2022/10/08 02:18:29;;;;;;;6.30;2.23;;;13.00;98.90;;;;;;5000934;28;20450;-81
2022/10/08 02:21:04;;;;;;;14.53;2.60;;;13.00;99.00;;;;;;5010240;28;20468;-82
2022/10/08 02:23:42;;;;;;;3.17;2.13;;;13.20;99.10;;;;;;5040412;28;20933;-81
2022/10/08 02:26:20;;;;;;;8.60;2.40;;;13.20;98.70;;;;;;5021225;28;20492;-82
2022/10/08 02:28:52;;;;;;;6.80;2.13;;;13.10;98.70;;;;;;5041224;28;20444;-81
2022/10/08 02:31:28;;;;;;;4.80;2.73;;;13.10;98.80;;;;;;5038860;28;20473;-83
2022/10/08 02:34:10;;;;;;;2.73;2.13;;;13.00;99.00;;;;;;5043019;28;20464;-83
2022/10/08 02:36:48;;;;;;;2.93;2.33;;;13.20;98.90;;;;;;5056832;28;20448;-82
2022/10/08 02:39:17;;;;;;;8.80;2.40;;;13.10;98.70;;;;;;5057255;28;20433;-84
2022/10/08 02:41:51;;;;;;;3.30;2.40;;;13.10;98.70;;;;;;5041834;28;20441;-83
2022/10/08 02:44:28;;;;;;;6.50;2.10;;;13.10;98.90;;;;;;5018674;28;20519;-82
2022/10/08 02:46:58;;;;;;;5.73;2.50;;;13.20;98.60;;;;;;5036421;28;20441;-82
2022/10/08 02:49:32;;;;;;;4.90;2.33;;;13.10;98.30;;;;;;5009334;28;20461;-81
2022/10/08 02:52:01;;;;;;;4.23;1.90;;;13.20;98.50;;;;;;5037227;28;20453;-82
2022/10/08 02:54:36;;;;;;;3.30;2.10;;;13.10;98.60;;;;;;5020588;28;20489;-83
2022/10/08 02:57:17;;;;;;;2.90;1.83;;;13.10;98.70;;;;;;5018738;28;20496;-82
2022/10/08 02:59:45;;;;;;;2.93;2.33;;;13.20;98.50;;;;;;5029981;28;20449;-83
2022/10/08 03:02:21;;;;;;;5.07;2.37;;;13.30;98.30;;;;;;5019041;28;20449;-82
2022/10/08 03:05:00;;;;;;;6.60;2.70;;;13.20;98.40;;;;;;5020233;28;20469;-82
2022/10/08 03:07:31;;;;;;;4.07;2.50;;;13.10;98.50;;;;;;5024838;28;20452;-82
2022/10/08 03:10:04;;;;;;;5.70;2.77;;;13.10;98.50;;;;;;5032735;28;20962;-82
2022/10/08 03:12:32;;;;;;;6.90;2.40;;;13.20;98.70;;;;;;5009134;28;20453;-82
2022/10/08 03:15:00;;;;;;;3.53;2.13;;;13.20;98.60;;;;;;5030582;28;20481;-82
2022/10/08 03:17:40;;;;;;;5.43;2.17;;;13.20;98.60;;;;;;5017915;28;20457;-82
2022/10/08 03:20:08;;;;;;;8.17;2.27;;;13.10;98.60;;;;;;5025164;28;20519;-81
2022/10/08 03:22:35;;;;;;;3.10;2.13;;;13.10;98.90;;;;;;5035754;28;20458;-82
2022/10/08 03:25:03;;;;;;;4.90;2.73;;;13.10;99.50;;;;;;5043713;28;20465;-82
2022/10/08 03:27:30;;;;;;;4.00;2.00;;;13.10;99.90;;;;;;5028173;28;20445;-80
2022/10/08 03:29:56;;;;;;;4.77;2.17;;;13.00;99.90;;;;;;5053611;28;20456;-81
2022/10/08 03:32:26;;;;;;;4.90;2.50;;;13.10;99.90;;;;;;5051730;28;20453;-80
2022/10/08 03:34:53;;;;;;;4.93;2.90;;;13.10;99.90;;;;;;5039681;28;20485;-80
2022/10/08 03:37:19;;;;;;;4.57;2.70;;;13.20;99.90;;;;;;5052958;28;20922;-81
2022/10/08 03:39:46;;;;;;;13.50;2.53;;;13.20;99.90;;;;;;5036964;28;20943;-81
2022/10/08 03:42:13;;;;;;;5.50;2.03;;;13.30;99.90;;;;;;5035319;28;20445;-83
2022/10/08 03:44:39;;;;;;;3.50;2.03;;;13.30;99.90;;;;;;5034757;28;20477;-83
2022/10/08 03:47:06;;;;;;;5.63;2.80;;;13.30;99.90;;;;;;5020960;28;20478;-83
2022/10/08 03:49:35;;;;;;;3.67;2.30;;;13.30;99.90;;;;;;5034398;28;20575;-81
2022/10/08 03:52:02;;;;;;;5.40;2.57;;;13.20;99.90;;;;;;5018947;28;20461;-83
2022/10/08 03:54:29;;;;;;;7.20;2.60;;;13.10;99.90;;;;;;5035161;28;20481;-83
2022/10/08 03:56:56;;;;;;;7.70;2.57;;;13.10;99.90;;;;;;5017596;28;21035;-82
2022/10/08 03:59:23;;;;;;;3.37;2.43;;;13.00;99.90;;;;;;5017601;28;20771;-83
2022/10/08 04:01:49;;;;;;;5.20;2.30;;;13.10;99.90;;;;;;5035073;28;20453;-82
2022/10/08 04:04:16;;;;;;;2.67;2.00;;;13.00;99.90;;;;;;5033707;28;20552;-82
2022/10/08 04:06:47;;;;;;;10.77;2.93;;;13.00;99.90;;;;;;5052018;28;20430;-84
2022/10/08 04:09:13;;;;;;;7.20;2.80;;;12.90;99.90;;;;;;5054033;28;20450;-80
2022/10/08 04:11:40;;;;;;;3.73;2.30;;;13.00;99.90;;;;;;5034633;28;20450;-82
2022/10/08 04:14:07;;;;;;;7.40;2.60;;;12.90;99.90;;;;;;5042729;28;20485;-82
2022/10/08 04:16:33;;;;;;;5.70;2.17;;;13.00;99.90;;;;;;5030906;28;20457;-82
2022/10/08 04:19:00;;;;;;;6.33;2.23;;;13.00;99.90;;;;;;5009131;28;20963;-83
2022/10/08 04:21:29;;;;;;;2.93;2.10;;;13.00;99.90;;;;;;5009660;28;20457;-81
2022/10/08 04:23:56;;;;;;;3.67;2.10;;;13.00;99.90;;;;;;5018824;28;20454;-80
2022/10/08 04:26:23;;;;;;;5.03;2.30;;;13.10;99.90;;;;;;5018097;28;20525;-82
2022/10/08 04:28:50;;;;;;;5.40;2.77;;;13.30;99.90;;;;;;5020495;28;20523;-83
2022/10/08 04:31:20;;;;;;;8.77;3.37;;;13.10;99.90;;;;;;5037339;28;20481;-84
2022/10/08 04:33:48;;;;;;;5.40;2.60;;;13.10;99.90;;;;;;5032657;28;20500;-83
2022/10/08 04:36:18;;;;;;;3.83;2.00;;;13.10;99.90;;;;;;5050666;28;20469;-84
2022/10/08 04:38:46;;;;;;;4.50;2.40;;;13.00;99.90;;;;;;5028416;28;20445;-83
2022/10/08 04:41:15;;;;;;;5.30;1.97;;;13.10;99.90;;;;;;5039903;28;20434;-82
2022/10/08 04:43:42;;;;;;;6.03;2.27;;;13.20;99.90;;;;;;5057536;28;20441;-83
2022/10/08 04:46:11;;;;;;;3.80;2.27;;;13.20;99.90;;;;;;5049834;28;20518;-81
2022/10/08 04:48:38;;;;;;;3.63;2.30;;;13.40;99.90;;;;;;5031981;28;20452;-83
2022/10/08 04:51:06;;;;;;;3.20;2.03;;;13.50;99.90;;;;;;5021033;28;20438;-83
2022/10/08 04:53:36;;;;;;;3.43;2.43;;;13.60;99.90;;;;;;5027067;28;20489;-82
2022/10/08 04:56:30;;;;;;;3.33;2.17;;;13.40;99.90;;;;;;5017700;28;20487;-82
2022/10/08 04:58:59;;;;;;;3.37;1.90;;;13.20;99.90;;;;;;5022568;28;20473;-83
2022/10/08 05:01:27;;;;;;;3.10;2.00;;;13.30;99.90;;;;;;5017257;28;20829;-82
2022/10/08 05:03:55;;;;;;;5.60;2.60;;;13.50;99.90;;;;;;5032989;28;20462;-82
2022/10/08 05:06:25;;;;;;;4.80;1.87;;;13.50;99.90;;;;;;5036960;28;20472;-82
2022/10/08 05:08:53;;;;;;;4.47;2.80;;;13.80;99.90;;;;;;5018464;28;20958;-82
2022/10/08 05:11:24;;;;;;;4.60;2.03;;;13.90;99.90;;;;;;5036458;28;20445;-83
2022/10/08 05:13:52;;;;;;;4.07;2.43;;;13.90;99.90;;;;;;5034981;28;20485;-82
2022/10/08 05:16:20;;;;;;;7.07;2.37;;;13.90;99.90;;;;;;5016835;28;20500;-82
2022/10/08 05:18:49;;;;;;;5.97;2.50;;;13.90;99.90;;;;;;5007179;28;20453;-82
2022/10/08 05:21:18;;;;;;;3.67;2.03;;;13.90;99.90;;;;;;5036768;28;20445;-82
2022/10/08 05:23:45;;;;;;;4.53;2.23;;;13.80;99.90;;;;;;5037575;28;20448;-81
2022/10/08 05:26:14;;;;;;;6.80;2.33;;;13.60;99.90;;;;;;5038416;28;20855;-82
2022/10/08 05:28:42;;;;;;;3.67;2.33;;;13.60;99.90;;;;;;5037955;28;20449;-82
2022/10/08 05:31:10;;;;;;;5.43;2.00;;;13.70;99.90;;;;;;5039416;28;20446;-82
2022/10/08 05:33:37;;;;;;;8.23;2.17;;;13.70;99.90;;;;;;5055958;28;20492;-83
2022/10/08 05:36:06;;;;;;;6.00;1.90;;;13.60;99.90;;;;;;5038190;28;20453;-82
2022/10/08 05:38:33;;;;;;;5.33;1.90;;;13.50;99.90;;;;;;5020754;28;20438;-81
2022/10/08 05:41:28;;;;;;;3.77;2.10;;;13.70;99.90;;;;;;5013574;28;20519;-81
2022/10/08 05:43:56;;;;;;;6.03;2.63;;;13.70;99.90;;;;;;5013977;28;20454;-82
2022/10/08 05:46:24;;;;;;;5.80;3.23;;;13.80;99.90;;;;;;5010341;28;20485;-83
2022/10/08 05:48:52;;;;;;;2.87;1.90;;;13.60;99.90;;;;;;5032568;28;20460;-82
2022/10/08 05:51:19;;;;;;;6.30;2.30;;;13.60;99.90;;;;;;5029771;28;20489;-81
2022/10/08 05:53:48;;;;;;;4.20;2.57;;;13.80;99.90;;;;;;5008355;28;20876;-81
2022/10/08 05:56:17;;;;;;;2.90;2.03;;;13.90;99.90;;;;;;5029754;28;20513;-81
2022/10/08 05:58:45;;;;;;;5.73;2.10;;;13.90;99.90;;;;;;5017028;28;20518;-81
2022/10/08 06:01:19;;;;;;;6.03;2.43;;;13.90;99.90;;;;;;5018464;28;21248;-82
2022/10/08 06:03:54;;;;;;;3.97;2.10;;;14.00;99.90;;;;;;5015296;28;20498;-83
2022/10/08 06:06:23;;;;;;;3.60;2.43;;;14.00;99.90;;;;;;5017865;28;20484;-84
2022/10/08 06:09:00;;;;;;;4.57;2.90;;;14.00;99.90;;;;;;5018645;28;20457;-83
2022/10/08 06:11:30;;;;;;;6.57;3.10;;;14.00;99.90;;;;;;5009569;28;20701;-84
2022/10/08 06:13:59;;;;;;;6.90;3.03;;;13.90;99.90;;;;;;5017676;28;20457;-83
2022/10/08 06:16:27;;;;;;;5.60;3.23;;;13.90;99.90;;;;;;5014772;28;21054;-82
2022/10/08 06:18:54;;;;;;;5.93;3.40;;;13.90;99.90;;;;;;5033744;28;20912;-83
2022/10/08 06:21:23;;;;;;;6.33;3.90;;;13.90;99.90;;;;;;5020008;28;20531;-81
2022/10/08 06:23:58;;;;;;;9.17;3.00;;;13.90;99.90;;;;;;5037345;28;21216;-82
2022/10/08 06:26:27;;;;;;;5.00;2.80;;;13.90;99.90;;;;;;5036784;28;20476;-81
2022/10/08 06:29:00;;;;;;;3.30;2.83;;;13.80;99.90;;;;;;5034837;28;20446;-82
2022/10/08 06:31:26;;;;;;;3.47;3.17;;;13.80;99.90;;;;;;5020603;28;20453;-83
2022/10/08 06:33:57;;;;;;;7.83;3.83;;;13.90;99.90;;;;;;5023585;28;20452;-81
2022/10/08 06:36:26;;;;;;;5.40;3.20;;;13.80;99.90;;;;;;5039083;28;20492;-81
2022/10/08 06:39:14;;;;;;;5.03;3.13;;;13.90;99.90;;;;;;5042807;28;20468;-82
2022/10/08 06:41:40;;;;;;;3.77;3.13;;;13.80;99.90;;;;;;5024552;28;20556;-82
2022/10/08 06:44:11;;;;;;;4.03;3.63;;;13.80;99.90;;;;;;5018839;28;20481;-82
2022/10/08 06:46:38;;;;;;;5.63;4.00;;;13.70;99.90;;;;;;5031270;28;20515;-82
2022/10/08 06:49:09;;;;;;;4.63;3.70;;;13.90;99.90;;;;;;5034596;28;20449;-81
2022/10/08 06:51:36;;;;;;;8.70;3.93;;;13.90;99.90;;;;;;5040065;28;20503;-81
2022/10/08 06:54:03;;;;;;;4.50;3.80;;;13.90;99.90;;;;;;5018679;28;20644;-83
2022/10/08 06:56:34;;;;;;;4.60;4.20;;;13.80;99.90;;;;;;5018406;28;20457;-83
2022/10/08 06:59:05;;;;;;;5.20;3.33;;;13.70;99.90;;;;;;5035188;28;20449;-82
2022/10/08 07:01:31;;;;;;;6.57;4.07;;;13.70;99.90;;;;;;5032092;28;20453;-84
2022/10/08 07:04:00;;;;;;;6.73;4.57;;;13.70;99.90;;;;;;5029381;28;20449;-81
2022/10/08 07:06:28;;;;;;;11.27;5.10;;;13.70;99.90;;;;;;5036936;28;20480;-82
2022/10/08 07:08:59;;;;;;;5.87;4.20;;;13.70;99.90;;;;;;5020415;28;20737;-82
2022/10/08 07:11:26;;;;;;;6.80;4.00;;;13.70;99.90;;;;;;5020425;28;20536;-82
2022/10/08 07:13:54;;;;;;;6.47;4.27;;;13.70;99.90;;;;;;5020809;28;20512;-82
2022/10/08 07:16:23;;;;;;;5.47;4.03;;;13.80;99.90;;;;;;5020236;28;20553;-80
2022/10/08 07:18:52;;;;;;;5.70;5.00;;;13.80;99.90;;;;;;5013789;28;21029;-80
2022/10/08 07:21:21;;;;;;;10.70;4.27;;;13.80;99.90;;;;;;5039035;28;20920;-80
2022/10/08 07:23:49;;;;;;;12.80;4.80;;;13.80;99.90;;;;;;5031063;28;20453;-82
2022/10/08 07:26:18;;;;;;;8.90;4.50;;;13.90;99.90;;;;;;5022568;28;20519;-82
2022/10/08 07:28:57;;;;;;;5.83;3.97;;;13.90;99.90;;;;;;5035859;28;20465;-81
2022/10/08 07:31:28;;;;;;;6.63;4.20;;;13.90;99.90;;;;;;5029699;28;20461;-82
2022/10/08 07:33:59;;;;;;;6.33;3.90;;;14.00;99.90;;;;;;5030411;28;20457;-80
2022/10/08 07:36:26;;;;;;;8.40;3.70;;;14.00;99.90;;;;;;5043380;28;20492;-83
2022/10/08 07:38:58;;;;;;;8.00;3.90;;;14.00;99.90;;;;;;5031941;28;20481;-82
2022/10/08 07:41:26;;;;;;;6.80;4.27;;;14.10;99.90;;;;;;5024841;28;20456;-81
2022/10/08 07:43:57;;;;;;;6.40;3.87;;;14.20;99.90;;;;;;5022564;28;20468;-82
2022/10/08 07:46:31;;;;;;;10.60;4.60;;;14.20;99.90;;;;;;5044035;28;20458;-81
2022/10/08 07:49:00;;;;;;;5.00;4.17;;;14.20;99.90;;;;;;5049587;28;20449;-82
2022/10/08 07:51:28;;;;;;;10.03;3.83;;;14.30;99.90;;;;;;5039387;28;20511;-83
2022/10/08 07:53:55;;;;;;;8.03;4.27;;;14.40;99.90;;;;;;5038715;28;20445;-80
2022/10/08 07:56:27;;;;;;;6.33;3.90;;;14.50;99.90;;;;;;5041978;28;20491;-84
2022/10/08 07:58:53;;;;;;;5.47;3.60;;;14.50;99.90;;;;;;5014506;28;20458;-84
2022/10/08 08:01:27;;;;;;;10.77;4.13;;;14.60;99.90;;;;;;5006871;28;20450;-81
2022/10/08 08:04:03;;;;;;;7.57;3.70;;;14.60;99.90;;;;;;5030615;28;20473;-81
2022/10/08 08:06:31;;;;;;;6.43;5.30;;;14.60;99.90;;;;;;5038181;28;20532;-82
2022/10/08 08:09:00;;;;;;;5.93;3.97;;;14.50;99.90;;;;;;5038888;28;20457;-81
2022/10/08 08:11:26;;;;;;;9.33;4.77;;;14.50;99.90;;;;;;5040995;28;20974;-82
2022/10/08 08:13:56;;;;;;;8.17;4.67;;;14.40;99.90;;;;;;5020894;28;20465;-84
2022/10/08 08:16:25;;;;;;;6.80;5.20;;;14.40;99.90;;;;;;5025885;28;20473;-84
2022/10/08 08:18:54;;;;;;;7.70;5.70;;;14.40;99.90;;;;;;5026339;28;20877;-84
2022/10/08 08:21:38;;;;;;;7.80;4.70;;;14.50;99.90;;;;;;5035034;28;20441;-83
2022/10/08 08:24:09;;;;;;;9.37;4.87;;;14.60;99.90;;;;;;5051992;28;20438;-82
2022/10/08 08:26:37;;;;;;;7.93;5.03;;;14.70;99.90;;;;;;5048114;28;20481;-85
2022/10/08 08:29:14;;;;;;;7.90;5.50;;;15.10;99.90;;;;;;5040094;28;20457;-83
2022/10/08 08:31:43;;;;;;;13.60;5.30;;;15.10;99.90;;;;;;5039400;28;20428;-83
2022/10/08 08:34:13;;;;;;;11.63;7.03;;;15.20;99.90;;;;;;5018418;28;20474;-83
2022/10/08 08:36:43;;;;;;;6.27;4.53;;;15.30;99.90;;;;;;5019480;28;20488;-83
2022/10/08 08:39:16;;;;;;;8.43;5.30;;;15.50;99.90;;;;;;5030210;28;20460;-84
2022/10/08 08:42:06;;;;;;;5.60;4.70;;;15.40;99.90;;;;;;5056751;28;20461;-84
2022/10/08 08:44:54;;;;;;;4.80;4.30;;;15.40;99.90;;;;;;5026119;28;20492;-82
2022/10/08 08:47:33;;;;;;;5.50;4.63;;;15.30;99.90;;;;;;4998936;28;20458;-83
2022/10/08 08:50:05;;;;;;;8.67;5.00;;;15.30;99.90;;;;;;5018458;28;20476;-83
2022/10/08 08:52:44;;;;;;;8.07;4.13;;;15.40;99.90;;;;;;5039350;28;20456;-83
2022/10/08 08:55:20;;;;;;;7.43;4.13;;;15.50;99.90;;;;;;5019686;28;20485;-83
2022/10/08 08:58:19;;;;;;;9.00;3.60;;;15.50;99.90;;;;;;5019218;28;20453;-83
2022/10/08 09:00:55;;;;;;;8.33;3.30;;;15.60;99.90;;;;;;5019926;28;20458;-84
2022/10/08 09:03:48;;;;;;;6.53;3.47;;;15.70;99.90;;;;;;5037628;28;20467;-82
2022/10/08 09:06:18;;;;;;;9.73;6.90;;;15.60;99.90;;;;;;5029279;28;20449;-83
2022/10/08 09:09:18;;;;;;;4.07;3.40;;;15.60;99.90;;;;;;5037591;28;20453;-84
2022/10/08 09:11:46;;;;;;;5.43;4.10;;;15.70;99.90;;;;;;5040018;28;20441;-82
2022/10/08 09:14:30;;;;;;;5.40;3.23;;;15.70;99.90;;;;;;5028317;28;20457;-82
2022/10/08 09:17:01;;;;;;;5.07;2.87;;;15.60;99.90;;;;;;5009220;28;20449;-83
2022/10/08 09:19:28;;;;;;;8.43;3.30;;;15.70;99.90;;;;;;5036571;28;21068;-82
2022/10/08 09:21:54;;;;;;;8.23;3.90;;;15.70;99.90;;;;;;5014362;28;20468;-82
2022/10/08 09:24:22;;;;;;;4.57;2.80;;;15.60;99.90;;;;;;5018206;28;20465;-83
2022/10/08 09:26:50;;;;;;;3.93;3.37;;;15.70;99.90;;;;;;5005746;28;20453;-83
2022/10/08 09:29:33;;;;;;;5.43;3.17;;;15.80;99.90;;;;;;5035466;28;20901;-83
2022/10/08 09:32:00;;;;;;;4.97;3.43;;;15.90;99.90;;;;;;5016609;28;20849;-82
2022/10/08 09:34:27;;;;;;;4.43;2.60;;;16.00;99.90;;;;;;5034472;28;20560;-82
2022/10/08 09:37:11;;;;;;;7.00;3.73;;;16.40;99.40;;;;;;5016776;28;20536;-82
2022/10/08 09:40:11;;;;;;;4.03;3.03;;;16.90;96.90;;;;;;5017850;28;20486;-83
2022/10/08 09:42:39;;;;;;;6.63;4.20;;;17.00;96.40;;;;;;5015364;28;20508;-82
2022/10/08 09:45:28;;;;;;;6.50;3.30;;;17.10;95.70;;;;;;5017916;28;20499;-84
2022/10/08 09:48:19;;;;;;;5.60;3.03;;;17.20;95.90;;;;;;5010903;28;21258;-81
2022/10/08 09:51:05;;;;;;;7.87;3.70;;;17.90;95.30;;;;;;5016699;28;20515;-83
2022/10/08 09:53:57;;;;;;;7.47;2.87;;;18.50;93.30;;;;;;5016726;28;20492;-83
2022/10/08 09:56:27;;;;;;;6.77;3.10;;;18.50;92.20;;;;;;5016511;28;20485;-81
2022/10/08 09:59:02;;;;;;;6.70;2.70;;;18.40;92.80;;;;;;5016326;28;21231;-82
2022/10/08 10:01:30;;;;;;;4.40;2.10;;;18.70;91.90;;;;;;5046740;28;20495;-82
2022/10/08 10:04:01;;;;;;;5.70;3.57;;;18.10;91.80;;;;;;5038265;28;20522;-83
2022/10/08 10:14:53;;;;;;;5.03;3.03;;;17.30;93.30;;;;;;5056461;23;20554;-82
2022/10/08 10:17:51;;;;;;;5.57;2.03;;;17.30;93.30;;;;;;5047218;28;20506;-82
2022/10/08 10:20:34;;;;;;;4.83;2.57;;;17.50;93.30;;;;;;5048592;28;20460;-82
2022/10/08 10:23:12;;;;;;;3.23;1.90;;;17.80;92.60;;;;;;5044987;28;20465;-83
2022/10/08 10:25:54;;;;;;;5.40;2.53;;;18.20;91.40;;;;;;5033694;28;20553;-82
2022/10/08 10:28:49;;;;;;;4.73;2.80;;;18.10;90.80;;;;;;5049699;28;20468;-83
2022/10/08 10:31:42;;;;;;;5.30;2.13;;;18.00;90.70;;;;;;5049119;28;20488;-83
2022/10/08 10:34:26;;;;;;;2.30;2.10;;;17.80;90.80;;;;;;5041703;28;20483;-82
2022/10/08 10:37:02;;;;;;;2.50;2.30;;;17.70;91.30;;;;;;5053246;28;20472;-83
2022/10/08 10:50:02;;;;;;;;;;;;;;;;;;;;;
2022/10/08 11:04:11;;;;;;;3.70;2.30;;;17.10;92.10;;;;;;6254156;22;20270;-83
2022/10/08 11:07:36;;;;;;;5.53;2.33;;;17.90;92.20;;;;;;6099414;23;20404;-83
2022/10/08 11:47:36;;;;;;;3.93;2.57;;;17.20;91.40;;;;;;6350065;22;20427;-84
2022/10/08 12:03:04;;;;;;;4.17;2.27;;;17.40;90.90;;;;;;6162026;23;20446;-84
2022/10/08 12:11:55;;;;;;;3.50;2.60;;;17.30;91.00;;;;;;5187271;27;20530;-83
2022/10/08 12:14:25;;;;;;;4.83;2.40;;;17.20;91.30;;;;;;5091826;27;1313215;-83
2022/10/08 12:17:05;;;;;;;3.33;1.60;;;17.30;91.30;;;;;;5107798;28;20256;-82
2022/10/08 12:20:15;;;;;;;2.67;2.03;;;17.30;91.30;;;;;;5121297;28;20453;-84
2022/10/08 12:23:37;;;;;;;4.77;1.60;;;17.60;87.70;;;;;;5114084;28;20457;-83
2022/10/08 12:26:18;;;;;;;5.23;1.93;;;18.00;86.10;;;;;;5117009;28;20475;-83
2022/10/08 12:28:52;;;;;;;3.37;2.30;;;18.50;83.60;;;;;;5107209;28;20446;-84
2022/10/08 12:31:28;;;;;;;2.70;1.83;;;19.00;82.20;;;;;;5116662;27;20475;-81
2022/10/08 12:34:13;;;;;;;2.83;1.50;;;19.10;81.20;;;;;;5110874;28;20452;-83
2022/10/08 12:37:12;;;;;;;2.20;1.30;;;19.40;80.00;;;;;;5124606;27;20456;-83
2022/10/08 12:39:45;;;;;;;2.10;1.50;;;19.70;75.70;;;;;;5107718;28;20843;-82
2022/10/08 12:43:16;;;;;;;2.10;1.13;;;19.80;71.60;;;;;;5117590;28;20434;-84
2022/10/08 12:46:42;;;;;;;1.70;1.27;;;19.70;68.80;;;;;;5141411;28;20493;-83
2022/10/08 12:50:04;;;;;;;1.70;1.00;;;19.80;68.70;;;;;;5068962;28;22430;-82
2022/10/08 12:52:58;;;;;;;3.80;1.30;;;19.90;69.60;;;;;;5046851;28;20578;-83
2022/10/08 12:56:14;;;;;;;2.80;1.03;;;20.10;67.00;;;;;;5073642;28;20831;-83
2022/10/08 12:59:35;;;;;;;;;;;;;;;;;;;;;
2022/10/08 13:02:27;;;;;;;3.47;2.10;;;20.90;64.70;;;;;;5070537;28;20542;-83
2022/10/08 13:04:57;;;;;;;1.90;1.00;;;21.00;64.40;;;;;;5066326;28;20463;-84
2022/10/08 13:07:42;;;;;;;2.53;1.30;;;21.20;64.20;;;;;;5067975;28;20531;-83
2022/10/08 13:10:36;;;;;;;2.70;1.40;;;21.50;63.10;;;;;;5049849;28;20475;-84
2022/10/08 13:17:08;;;;;;;4.23;1.80;;;21.10;56.80;;;;;;5064962;28;20467;-81
2022/10/08 13:20:13;;;;;;;2.33;1.77;;;20.60;57.60;;;;;;5059170;28;20467;-83
2022/10/08 13:23:24;;;;;;;3.80;1.80;;;20.30;58.80;;;;;;5065000;28;20444;-83
2022/10/08 13:41:18;;;;;;;;;;;;;;;;;;;;;
2022/10/08 13:44:59;;;;;;;5.23;2.10;;;21.90;56.80;;;;;;5020784;28;20492;-82
2022/10/08 13:48:30;;;;;;;3.73;2.60;;;21.40;57.70;;;;;;4997654;28;20454;-83
2022/10/08 13:51:03;;;;;;;2.40;1.50;;;20.70;58.90;;;;;;4922913;29;20646;-83
2022/10/08 13:53:47;;;;;;;;;;;;;;;;;;;;;
2022/10/08 13:56:31;;;;;;;5.77;1.77;;;20.30;59.10;;;;;;4996968;28;20517;-82
2022/10/08 13:59:24;;;;;;;3.40;1.53;;;20.00;59.70;;;;;;4998198;28;20433;-84
2022/10/08 14:02:20;;;;;;;1.40;1.10;;;19.70;59.00;;;;;;5009453;28;20477;-84
2022/10/08 14:05:25;;;;;;;1.90;0.97;;;19.40;59.30;;;;;;5005678;28;20475;-81
2022/10/08 14:11:08;;;;;;;2.30;1.27;;;18.90;59.20;;;;;;4984592;28;20475;-82
2022/10/08 14:13:46;;;;;;;1.80;1.10;;;18.80;59.90;;;;;;4998567;28;20918;-83
2022/10/08 14:16:22;;;;;;;3.40;1.23;;;18.80;60.50;;;;;;4998986;28;20484;-82
2022/10/08 14:18:54;;;;;;;4.30;1.47;;;18.70;61.20;;;;;;5003036;28;20577;-83
2022/10/08 14:21:30;;;;;;;3.60;1.50;;;18.70;61.60;;;;;;5006696;28;20492;-83
2022/10/08 14:27:39;;;;;;;2.97;1.20;;;18.70;60.30;;;;;;5135663;22;20494;-83
2022/10/08 14:37:08;;;;;;;4.00;1.73;;;18.30;62.50;;;;;;1282092;26;20459;-83
2022/10/08 14:39:55;;;;;;;2.60;1.13;;;18.30;63.60;;;;;;5005324;28;21023;-83
2022/10/08 14:42:39;;;;;;;2.13;1.23;;;18.20;62.90;;;;;;5014656;28;20450;-83
2022/10/08 14:45:15;;;;;;;1.53;1.10;;;18.10;63.20;;;;;;5009748;28;21006;-83
2022/10/08 14:47:42;;;;;;;1.87;1.10;;;18.10;63.10;;;;;;5011871;28;20458;-82
2022/10/08 14:50:12;;;;;;;2.90;1.27;;;18.10;63.70;;;;;;4986648;28;20475;-82
2022/10/08 14:52:39;;;;;;;4.90;1.83;;;18.00;64.20;;;;;;5002861;28;20857;-82
2022/10/08 14:55:14;;;;;;;2.33;1.27;;;18.10;65.00;;;;;;5000702;28;21176;-83
2022/10/08 14:57:40;;;;;;;4.87;1.70;;;18.00;64.30;;;;;;4997870;28;21085;-82
2022/10/08 15:00:08;;;;;;;1.23;1.13;;;18.00;64.30;;;;;;4994720;28;20454;-82
2022/10/08 15:02:39;;;;;;;2.70;0.90;;;18.00;63.70;;;;;;4993987;28;20451;-82
2022/10/08 15:05:06;;;;;;;1.80;1.00;;;18.10;63.50;;;;;;4996729;28;20562;-82
2022/10/08 15:07:33;;;;;;;2.13;1.00;;;18.00;62.40;;;;;;4995808;28;20464;-83
2022/10/08 15:10:00;;;;;;;2.03;1.10;;;18.00;63.10;;;;;;5005344;28;20531;-82
2022/10/08 15:12:26;;;;;;;1.43;1.13;;;18.00;63.10;;;;;;5012171;28;20447;-82
2022/10/08 15:14:53;;;;;;;2.00;1.10;;;17.90;63.20;;;;;;4995304;28;20562;-81
2022/10/08 15:17:19;;;;;;;2.40;1.33;;;18.00;63.90;;;;;;4999802;28;20493;-83
2022/10/08 15:19:46;;;;;;;2.10;1.20;;;18.00;64.20;;;;;;4998464;28;20483;-82
2022/10/08 15:22:12;;;;;;;5.60;1.70;;;18.20;64.20;;;;;;5012428;28;20876;-82
2022/10/08 15:24:40;;;;;;;3.37;1.77;;;18.10;64.60;;;;;;5004440;28;20859;-81
2022/10/08 15:27:06;;;;;;;2.60;1.20;;;18.10;65.00;;;;;;5006817;28;20454;-81
2022/10/08 15:29:35;;;;;;;3.77;1.20;;;18.10;65.20;;;;;;4997405;28;20447;-83
2022/10/08 15:32:02;;;;;;;3.90;1.13;;;18.00;65.60;;;;;;5013199;28;20463;-82